createdAt,value
2018-08-17T00:00:43.123Z,26.61
2018-08-17T00:03:11.512Z,26.61
2018-08-17T00:05:39.906Z,26.63
2018-08-17T00:08:08.235Z,26.57
2018-08-17T00:10:36.717Z,26.75
2018-08-17T00:13:05.342Z,26.51
2018-08-17T00:15:33.721Z,26.74
2018-08-17T00:18:02.006Z,26.79
2018-08-17T00:20:30.466Z,26.80
2018-08-17T00:22:59.391Z,26.87
2018-08-17T00:25:27.844Z,26.90
2018-08-17T00:27:56.265Z,26.78
2018-08-17T00:30:24.705Z,26.68
2018-08-17T00:32:53.132Z,26.72
2018-08-17T00:35:21.469Z,26.47
2018-08-17T00:37:49.817Z,26.58
2018-08-17T00:40:18.228Z,26.25
2018-08-17T00:42:46.609Z,26.29
2018-08-17T00:45:14.974Z,26.33
2018-08-17T00:47:43.339Z,26.37
2018-08-17T00:50:11.742Z,26.47
2018-08-17T00:52:40.110Z,26.51
2018-08-17T00:55:08.565Z,26.37
2018-08-17T00:57:36.934Z,26.29
2018-08-17T01:00:05.904Z,26.30
2018-08-17T01:02:34.243Z,26.26
2018-08-17T01:05:02.624Z,26.21
2018-08-17T01:07:31.054Z,26.19
2018-08-17T01:09:59.436Z,26.04
2018-08-17T01:12:28.655Z,26.08
2018-08-17T01:14:57.480Z,26.19
2018-08-17T01:17:25.984Z,26.13
2018-08-17T01:19:54.450Z,26.11
2018-08-17T01:22:22.912Z,26.14
2018-08-17T01:24:51.498Z,26.04
2018-08-17T01:27:19.859Z,26.17
2018-08-17T01:29:48.154Z,26.16
2018-08-17T01:32:16.473Z,25.95
2018-08-17T01:34:44.884Z,25.91
2018-08-17T01:37:13.192Z,25.79
2018-08-17T01:39:41.549Z,25.80
2018-08-17T01:42:09.889Z,25.81
2018-08-17T01:44:38.233Z,25.73
2018-08-17T01:47:06.857Z,25.69
2018-08-17T01:49:35.219Z,25.70
2018-08-17T01:52:03.706Z,25.72
2018-08-17T01:54:32.291Z,25.74
2018-08-17T01:57:00.736Z,25.70
2018-08-17T01:59:29.463Z,25.67
2018-08-17T02:01:57.868Z,25.75
2018-08-17T02:04:26.449Z,25.60
2018-08-17T02:06:54.895Z,25.58
2018-08-17T02:09:23.192Z,25.66
2018-08-17T02:11:51.553Z,25.68
2018-08-17T02:14:19.908Z,25.77
2018-08-17T02:16:48.291Z,25.79
2018-08-17T02:19:16.764Z,25.69
2018-08-17T02:21:45.273Z,25.51
2018-08-17T02:24:13.642Z,25.50
2018-08-17T02:26:42.011Z,25.69
2018-08-17T02:29:10.602Z,25.55
2018-08-17T02:31:39.017Z,25.61
2018-08-17T02:34:07.346Z,25.61
2018-08-17T02:36:35.718Z,25.64
2018-08-17T02:39:05.550Z,25.59
2018-08-17T02:41:34.007Z,25.58
2018-08-17T02:44:02.345Z,25.35
2018-08-17T02:46:30.709Z,25.28
2018-08-17T02:48:59.190Z,25.25
2018-08-17T02:51:27.553Z,25.22
2018-08-17T02:53:55.939Z,25.03
2018-08-17T02:56:24.451Z,25.32
2018-08-17T02:58:52.895Z,25.22
2018-08-17T03:01:21.345Z,25.10
2018-08-17T03:03:49.793Z,25.10
2018-08-17T03:06:18.201Z,25.07
2018-08-17T03:08:46.625Z,25.01
2018-08-17T03:11:15.035Z,25.01
2018-08-17T03:13:43.413Z,25.07
2018-08-17T03:16:11.731Z,25.19
2018-08-17T03:18:40.134Z,25.13
2018-08-17T03:21:08.706Z,24.98
2018-08-17T03:23:37.101Z,25.03
2018-08-17T03:26:05.489Z,24.91
2018-08-17T03:28:33.984Z,25.02
2018-08-17T03:31:02.392Z,24.95
2018-08-17T03:33:30.804Z,24.92
2018-08-17T03:35:59.156Z,24.83
2018-08-17T03:38:27.549Z,24.76
2018-08-17T03:40:55.922Z,24.78
2018-08-17T03:43:24.307Z,25.01
2018-08-17T03:45:53.232Z,25.20
2018-08-17T03:48:21.567Z,25.25
2018-08-17T03:50:50.704Z,25.22
2018-08-17T03:53:19.108Z,25.19
2018-08-17T03:55:47.512Z,25.15
2018-08-17T03:58:15.958Z,25.24
2018-08-17T04:00:44.360Z,24.83
2018-08-17T04:03:12.665Z,24.96
2018-08-17T04:05:40.958Z,24.64
2018-08-17T04:08:09.367Z,24.97
2018-08-17T04:10:37.788Z,25.06
2018-08-17T04:13:06.590Z,24.87
2018-08-17T04:15:35.090Z,24.44
2018-08-17T04:18:03.543Z,24.53
2018-08-17T04:20:32.894Z,24.95
2018-08-17T04:23:01.248Z,24.84
2018-08-17T04:25:29.790Z,24.82
2018-08-17T04:27:58.148Z,24.97
2018-08-17T04:30:26.537Z,25.15
2018-08-17T04:32:54.952Z,25.20
2018-08-17T04:35:23.631Z,24.94
2018-08-17T04:37:51.984Z,25.14
2018-08-17T04:40:20.346Z,24.99
2018-08-17T04:42:48.666Z,25.17
2018-08-17T04:45:17.005Z,25.24
2018-08-17T04:47:45.339Z,25.41
2018-08-17T04:50:13.675Z,25.52
2018-08-17T04:52:42.123Z,25.36
2018-08-17T04:55:10.586Z,25.50
2018-08-17T04:57:38.946Z,25.54
2018-08-17T05:00:08.693Z,25.59
2018-08-17T05:02:37.496Z,25.59
2018-08-17T05:05:06.519Z,25.61
2018-08-17T05:07:35.865Z,25.45
2018-08-17T05:10:04.836Z,25.50
2018-08-17T05:12:33.250Z,25.44
2018-08-17T05:15:01.680Z,25.38
2018-08-17T05:17:30.844Z,25.34
2018-08-17T05:19:59.251Z,25.38
2018-08-17T05:22:27.602Z,25.69
2018-08-17T05:24:56.048Z,25.77
2018-08-17T05:27:24.412Z,25.93
2018-08-17T05:29:52.743Z,26.07
2018-08-17T05:32:21.090Z,26.34
2018-08-17T05:34:49.490Z,26.60
2018-08-17T05:37:17.811Z,26.84
2018-08-17T05:39:46.108Z,27.07
2018-08-17T05:42:14.507Z,27.26
2018-08-17T05:44:42.871Z,27.35
2018-08-17T05:47:11.174Z,27.68
2018-08-17T05:49:39.536Z,27.87
2018-08-17T05:52:08.043Z,28.00
2018-08-17T05:54:36.396Z,28.16
2018-08-17T05:57:04.774Z,28.45
2018-08-17T05:59:33.168Z,28.42
2018-08-17T06:02:01.680Z,28.60
2018-08-17T06:04:29.997Z,28.68
2018-08-17T06:06:58.369Z,28.58
2018-08-17T06:09:26.791Z,28.42
2018-08-17T06:11:55.210Z,28.92
2018-08-17T06:14:23.537Z,28.92
2018-08-17T06:16:52.147Z,28.82
2018-08-17T06:19:20.511Z,28.87
2018-08-17T06:21:49.002Z,28.93
2018-08-17T06:24:17.409Z,28.86
2018-08-17T06:26:45.769Z,28.73
2018-08-17T06:29:14.096Z,28.64
2018-08-17T06:31:42.551Z,28.57
2018-08-17T06:34:10.898Z,28.54
2018-08-17T06:36:39.280Z,28.60
2018-08-17T06:39:09.799Z,28.32
2018-08-17T06:41:38.656Z,28.48
2018-08-17T06:44:07.128Z,28.47
2018-08-17T06:46:35.651Z,28.55
2018-08-17T06:49:04.085Z,28.58
2018-08-17T06:51:32.509Z,28.78
2018-08-17T06:54:00.805Z,28.64
2018-08-17T06:56:29.178Z,28.83
2018-08-17T06:58:57.634Z,28.69
2018-08-17T07:01:26.096Z,28.85
2018-08-17T07:03:54.485Z,29.08
2018-08-17T07:06:23.536Z,29.33
2018-08-17T07:08:51.965Z,29.48
2018-08-17T07:11:20.409Z,29.70
2018-08-17T07:13:48.838Z,29.98
2018-08-17T07:16:17.173Z,30.14
2018-08-17T07:18:45.482Z,30.33
2018-08-17T07:21:13.880Z,30.48
2018-08-17T07:23:42.214Z,30.34
2018-08-17T07:26:10.614Z,30.36
2018-08-17T07:28:39.024Z,30.25
2018-08-17T07:31:07.374Z,30.37
2018-08-17T07:33:35.758Z,30.57
2018-08-17T07:36:04.256Z,30.44
2018-08-17T07:38:32.582Z,30.64
2018-08-17T07:41:00.952Z,30.70
2018-08-17T07:43:29.322Z,31.06
2018-08-17T07:45:57.652Z,30.73
2018-08-17T07:48:26.084Z,31.10
2018-08-17T07:50:54.513Z,31.30
2018-08-17T07:53:22.898Z,31.63
2018-08-17T07:55:51.250Z,31.67
2018-08-17T07:58:19.598Z,31.62
2018-08-17T08:00:48.875Z,31.53
2018-08-17T08:03:17.229Z,32.02
2018-08-17T08:05:45.586Z,31.72
2018-08-17T08:08:13.971Z,32.06
2018-08-17T08:10:42.893Z,32.27
2018-08-17T08:13:11.334Z,31.50
2018-08-17T08:15:39.709Z,31.62
2018-08-17T08:18:08.164Z,32.37
2018-08-17T08:20:38.432Z,32.35
2018-08-17T08:23:18.088Z,32.56
2018-08-17T08:25:46.529Z,32.92
2018-08-17T08:28:14.892Z,32.73
2018-08-17T08:30:43.469Z,32.62
2018-08-17T08:33:12.370Z,32.70
2018-08-17T08:35:40.804Z,33.18
2018-08-17T08:38:09.444Z,33.14
2018-08-17T08:40:38.047Z,33.24
2018-08-17T08:43:07.597Z,33.51
2018-08-17T08:45:35.970Z,33.50
2018-08-17T08:48:05.643Z,33.84
2018-08-17T08:50:33.996Z,33.40
2018-08-17T08:53:02.369Z,33.59
2018-08-17T08:55:31.442Z,33.47
2018-08-17T08:58:00.649Z,33.52
2018-08-17T09:00:29.148Z,33.69
2018-08-17T09:02:57.590Z,34.01
2018-08-17T09:05:25.960Z,34.13
2018-08-17T09:07:54.547Z,33.73
2018-08-17T09:10:23.341Z,34.16
2018-08-17T09:12:51.753Z,34.68
2018-08-17T09:15:20.170Z,34.54
2018-08-17T09:17:48.442Z,34.89
2018-08-17T09:20:17.413Z,34.70
2018-08-17T09:22:45.686Z,34.87
2018-08-17T09:25:14.147Z,34.68
2018-08-17T09:27:42.510Z,34.37
2018-08-17T09:30:14.434Z,34.18
2018-08-17T09:32:42.696Z,34.25
2018-08-17T09:35:12.445Z,34.08
2018-08-17T09:37:40.992Z,33.76
2018-08-17T09:40:10.343Z,34.25
2018-08-17T09:42:38.792Z,35.09
2018-08-17T09:45:09.191Z,34.47
2018-08-17T09:47:37.833Z,34.87
2018-08-17T09:50:08.533Z,34.88
2018-08-17T09:52:37.160Z,34.89
2018-08-17T09:55:05.547Z,34.77
2018-08-17T09:57:33.907Z,35.31
2018-08-17T10:00:03.332Z,35.27
2018-08-17T10:02:36.931Z,35.36
2018-08-17T10:05:10.701Z,35.82
2018-08-17T10:07:45.087Z,35.31
2018-08-17T10:10:17.833Z,34.67
2018-08-17T10:12:48.583Z,34.35
2018-08-17T10:15:16.982Z,33.88
2018-08-17T10:17:45.323Z,35.08
2018-08-17T10:20:16.464Z,35.35
2018-08-17T10:22:45.456Z,34.38
2018-08-17T10:25:19.305Z,34.09
2018-08-17T10:27:49.934Z,35.24
2018-08-17T10:30:19.427Z,36.01
2018-08-17T10:32:58.171Z,36.72
2018-08-17T10:35:28.069Z,35.47
2018-08-17T10:37:59.592Z,35.81
2018-08-17T10:40:28.379Z,36.60
2018-08-17T10:42:58.721Z,36.92
2018-08-17T10:45:29.535Z,36.29
2018-08-17T10:47:58.463Z,36.60
2018-08-17T10:50:28.530Z,36.72
2018-08-17T10:52:59.188Z,37.27
2018-08-17T10:55:35.630Z,36.74
2018-08-17T10:58:04.585Z,37.35
2018-08-17T11:00:32.938Z,37.23
2018-08-17T11:03:01.325Z,37.87
2018-08-17T11:05:29.673Z,37.75
2018-08-17T11:07:58.046Z,37.92
2018-08-17T11:10:26.434Z,37.86
2018-08-17T11:12:54.766Z,38.27
2018-08-17T11:15:23.278Z,38.80
2018-08-17T11:17:51.683Z,39.04
2018-08-17T11:20:20.110Z,38.95
2018-08-17T11:22:48.512Z,38.60
2018-08-17T11:25:17.752Z,38.90
2018-08-17T11:27:46.157Z,38.75
2018-08-17T11:30:15.407Z,39.32
2018-08-17T11:32:43.807Z,38.40
2018-08-17T11:35:12.183Z,38.82
2018-08-17T11:37:40.720Z,38.38
2018-08-17T11:40:10.308Z,38.35
2018-08-17T11:42:45.153Z,39.41
2018-08-17T11:45:16.958Z,38.97
2018-08-17T11:47:45.785Z,38.36
2018-08-17T11:50:18.586Z,38.83
2018-08-17T11:52:50.984Z,37.70
2018-08-17T11:55:20.133Z,38.09
2018-08-17T11:57:48.643Z,38.85
2018-08-17T12:00:17.253Z,39.06
2018-08-17T12:02:46.027Z,37.77
2018-08-17T12:05:14.452Z,37.23
2018-08-17T12:07:45.133Z,38.05
2018-08-17T12:10:13.574Z,38.32
2018-08-17T12:12:42.797Z,38.66
2018-08-17T12:15:11.989Z,37.75
2018-08-17T12:17:40.396Z,39.18
2018-08-17T12:20:08.856Z,40.39
2018-08-17T12:22:37.320Z,41.96
2018-08-17T12:25:07.056Z,42.87
2018-08-17T12:27:35.341Z,42.77
2018-08-17T12:30:04.005Z,42.28
2018-08-17T12:32:32.348Z,40.90
2018-08-17T12:35:00.679Z,41.12
2018-08-17T12:37:29.123Z,42.24
2018-08-17T12:39:57.662Z,43.03
2018-08-17T12:42:26.307Z,45.53
2018-08-17T12:45:02.313Z,47.21
2018-08-17T12:47:31.512Z,48.16
2018-08-17T12:50:00.111Z,47.90
2018-08-17T12:52:28.605Z,46.48
2018-08-17T12:54:56.903Z,44.34
2018-08-17T12:57:29.607Z,43.22
2018-08-17T12:59:58.027Z,42.73
2018-08-17T13:02:26.454Z,41.87
2018-08-17T13:04:54.785Z,41.94
2018-08-17T13:07:23.207Z,41.65
2018-08-17T13:09:54.091Z,39.68
2018-08-17T13:12:22.464Z,39.99
2018-08-17T13:14:52.188Z,39.61
2018-08-17T13:17:20.901Z,39.24
2018-08-17T13:19:49.226Z,40.33
2018-08-17T13:22:17.649Z,41.74
2018-08-17T13:24:46.086Z,43.36
2018-08-17T13:27:15.170Z,45.18
2018-08-17T13:29:43.643Z,46.65
2018-08-17T13:32:12.279Z,48.37
2018-08-17T13:34:40.727Z,48.86
2018-08-17T13:37:09.068Z,48.30
2018-08-17T13:39:37.465Z,48.35
2018-08-17T13:42:06.139Z,48.71
2018-08-17T13:44:34.515Z,49.25
2018-08-17T13:47:02.908Z,49.08
2018-08-17T13:49:32.143Z,49.04
2018-08-17T13:52:00.464Z,51.08
2018-08-17T13:54:29.548Z,50.67
2018-08-17T13:56:57.943Z,52.49
2018-08-17T13:59:26.317Z,49.60
2018-08-17T14:01:54.701Z,50.75
2018-08-17T14:04:23.143Z,53.01
2018-08-17T14:06:51.572Z,49.55
2018-08-17T14:09:20.000Z,46.18
2018-08-17T14:11:48.413Z,44.92
2018-08-17T14:14:16.781Z,42.77
2018-08-17T14:16:45.193Z,42.52
2018-08-17T14:19:14.684Z,44.19
2018-08-17T14:21:43.072Z,43.40
2018-08-17T14:24:11.448Z,41.51
2018-08-17T14:26:39.825Z,41.09
2018-08-17T14:29:08.238Z,40.84
2018-08-17T14:31:36.670Z,41.09
2018-08-17T14:34:05.022Z,41.56
2018-08-17T14:36:33.400Z,42.04
2018-08-17T14:39:01.822Z,42.11
2018-08-17T14:41:30.190Z,42.39
2018-08-17T14:43:58.667Z,42.02
2018-08-17T14:46:27.139Z,41.16
2018-08-17T14:48:55.431Z,40.84
2018-08-17T14:51:23.789Z,40.32
2018-08-17T14:53:52.126Z,39.53
2018-08-17T14:56:20.479Z,38.78
2018-08-17T14:58:48.949Z,38.53
2018-08-17T15:01:17.318Z,37.58
2018-08-17T15:03:45.765Z,37.97
2018-08-17T15:06:14.179Z,38.30
2018-08-17T15:08:42.612Z,37.97
2018-08-17T15:11:11.059Z,37.53
2018-08-17T15:13:39.528Z,37.82
2018-08-17T15:16:07.817Z,38.05
2018-08-17T15:18:36.168Z,36.84
2018-08-17T15:21:04.580Z,36.99
2018-08-17T15:23:33.097Z,37.18
2018-08-17T15:26:01.508Z,37.29
2018-08-17T15:28:29.824Z,37.09
2018-08-17T15:30:58.868Z,37.33
2018-08-17T15:33:27.894Z,37.26
2018-08-17T15:35:56.350Z,37.31
2018-08-17T15:38:24.685Z,36.61
2018-08-17T15:40:53.098Z,35.50
2018-08-17T15:43:21.479Z,34.65
2018-08-17T15:45:50.411Z,35.43
2018-08-17T15:48:19.204Z,34.85
2018-08-17T15:50:47.719Z,34.39
2018-08-17T15:53:16.170Z,34.80
2018-08-17T15:55:44.813Z,34.52
2018-08-17T15:58:13.146Z,34.49
2018-08-17T16:00:41.983Z,34.45
2018-08-17T16:03:10.419Z,35.32
2018-08-17T16:05:38.859Z,35.81
2018-08-17T16:08:07.331Z,35.67
2018-08-17T16:10:35.684Z,35.47
2018-08-17T16:13:04.125Z,36.00
2018-08-17T16:15:32.437Z,36.30
2018-08-17T16:18:01.009Z,35.82
2018-08-17T16:20:29.349Z,35.53
2018-08-17T16:22:57.696Z,35.93
2018-08-17T16:25:26.036Z,36.03
2018-08-17T16:27:54.534Z,35.67
2018-08-17T16:30:22.994Z,37.19
2018-08-17T16:32:51.384Z,36.49
2018-08-17T16:35:19.775Z,36.35
2018-08-17T16:37:48.951Z,36.33
2018-08-17T16:40:17.421Z,36.01
2018-08-17T16:42:49.400Z,36.57
2018-08-17T16:45:19.030Z,36.59
2018-08-17T16:47:47.439Z,35.89
2018-08-17T16:50:15.793Z,35.11
2018-08-17T16:52:44.409Z,34.96
2018-08-17T16:55:12.854Z,33.97
2018-08-17T16:57:41.368Z,33.51
2018-08-17T17:00:11.042Z,33.53
2018-08-17T17:02:40.386Z,33.94
2018-08-17T17:05:09.182Z,33.37
2018-08-17T17:07:37.642Z,33.71
2018-08-17T17:10:08.277Z,33.68
2018-08-17T17:12:36.835Z,33.28
2018-08-17T17:15:19.879Z,33.56
2018-08-17T17:18:03.514Z,33.28
2018-08-17T17:20:36.095Z,33.02
2018-08-17T17:23:06.412Z,32.93
2018-08-17T17:25:34.806Z,32.68
2018-08-17T17:28:03.243Z,32.68
2018-08-17T17:30:42.060Z,32.54
2018-08-17T17:33:11.181Z,33.11
2018-08-17T17:35:40.702Z,32.74
2018-08-17T17:38:09.679Z,32.68
2018-08-17T17:40:38.182Z,32.83
2018-08-17T17:43:06.958Z,32.60
2018-08-17T17:45:35.808Z,32.02
2018-08-17T17:48:04.297Z,31.90
2018-08-17T17:50:32.770Z,32.24
2018-08-17T17:53:02.046Z,32.57
2018-08-17T17:55:40.635Z,32.52
2018-08-17T17:58:09.886Z,32.30
2018-08-17T18:00:38.286Z,32.93
2018-08-17T18:03:07.519Z,32.70
2018-08-17T18:05:35.919Z,32.23
2018-08-17T18:08:09.563Z,32.53
2018-08-17T18:10:44.993Z,32.09
2018-08-17T18:13:13.351Z,32.16
2018-08-17T18:15:41.767Z,31.93
2018-08-17T18:18:10.326Z,31.78
2018-08-17T18:20:38.813Z,31.62
2018-08-17T18:23:07.733Z,31.28
2018-08-17T18:25:36.195Z,31.48
2018-08-17T18:28:05.263Z,31.33
2018-08-17T18:30:33.713Z,31.97
2018-08-17T18:33:02.078Z,31.90
2018-08-17T18:35:30.468Z,31.85
2018-08-17T18:37:58.891Z,31.71
2018-08-17T18:40:27.246Z,31.44
2018-08-17T18:42:55.641Z,31.51
2018-08-17T18:45:24.036Z,30.56
2018-08-17T18:47:52.542Z,30.91
2018-08-17T18:50:20.889Z,30.62
2018-08-17T18:52:49.413Z,30.50
2018-08-17T18:55:17.780Z,30.57
2018-08-17T18:57:46.446Z,30.81
2018-08-17T19:00:14.924Z,30.97
2018-08-17T19:02:43.257Z,30.86
2018-08-17T19:05:11.851Z,30.51
2018-08-17T19:07:40.321Z,30.83
2018-08-17T19:10:09.686Z,30.23
2018-08-17T19:12:38.136Z,30.37
2018-08-17T19:15:08.969Z,30.50
2018-08-17T19:17:37.779Z,30.73
2018-08-17T19:20:08.255Z,30.13
2018-08-17T19:22:37.969Z,30.36
2018-08-17T19:25:07.786Z,29.82
2018-08-17T19:27:37.995Z,30.41
2018-08-17T19:30:12.944Z,30.09
2018-08-17T19:32:41.356Z,29.56
2018-08-17T19:35:09.751Z,30.21
2018-08-17T19:37:40.878Z,29.99
2018-08-17T19:40:09.240Z,29.42
2018-08-17T19:42:37.719Z,29.12
2018-08-17T19:45:06.053Z,29.53
2018-08-17T19:47:34.364Z,30.10
2018-08-17T19:50:02.826Z,29.41
2018-08-17T19:52:31.324Z,29.72
2018-08-17T19:54:59.684Z,28.70
2018-08-17T19:57:28.067Z,28.70
2018-08-17T19:59:56.397Z,28.69
2018-08-17T20:02:24.867Z,29.03
2018-08-17T20:04:53.458Z,29.78
2018-08-17T20:07:21.867Z,29.28
2018-08-17T20:09:50.201Z,29.42
2018-08-17T20:12:18.613Z,29.24
2018-08-17T20:14:47.017Z,28.60
2018-08-17T20:17:15.633Z,29.08
2018-08-17T20:19:49.057Z,28.58
2018-08-17T20:22:21.268Z,28.76
2018-08-17T20:24:49.759Z,29.13
2018-08-17T20:27:19.097Z,28.78
2018-08-17T20:29:47.689Z,28.77
2018-08-17T20:32:16.254Z,28.42
2018-08-17T20:34:46.975Z,28.84
2018-08-17T20:37:16.157Z,28.96
2018-08-17T20:39:45.698Z,28.35
2018-08-17T20:42:14.106Z,28.93
2018-08-17T20:44:42.599Z,28.76
2018-08-17T20:47:11.838Z,28.39
2018-08-17T20:49:40.405Z,28.64
2018-08-17T20:52:09.171Z,28.51
2018-08-17T20:54:37.656Z,28.68
2018-08-17T20:57:06.381Z,28.63
2018-08-17T20:59:34.717Z,28.26
2018-08-17T21:02:03.121Z,28.52
2018-08-17T21:04:31.930Z,28.58
2018-08-17T21:07:00.453Z,28.83
2018-08-17T21:09:29.159Z,29.02
2018-08-17T21:11:57.596Z,28.70
2018-08-17T21:14:25.978Z,28.41
2018-08-17T21:16:54.368Z,28.47
2018-08-17T21:19:34.093Z,28.72
2018-08-17T21:22:02.680Z,28.26
2018-08-17T21:24:34.999Z,27.34
2018-08-17T21:27:05.088Z,28.20
2018-08-17T21:29:34.664Z,27.80
2018-08-17T21:32:04.736Z,27.23
2018-08-17T21:34:33.755Z,27.64
2018-08-17T21:37:02.847Z,26.88
2018-08-17T21:39:32.785Z,27.04
2018-08-17T21:42:01.173Z,26.87
2018-08-17T21:44:29.637Z,27.58
2018-08-17T21:47:02.608Z,27.32
2018-08-17T21:49:31.057Z,26.96
2018-08-17T21:52:01.233Z,27.21
2018-08-17T21:54:30.310Z,26.91
2018-08-17T21:57:00.107Z,27.25
2018-08-17T21:59:32.928Z,26.98
2018-08-17T22:02:02.477Z,27.14
2018-08-17T22:04:31.319Z,26.95
2018-08-17T22:07:03.139Z,27.09
2018-08-17T22:09:38.876Z,27.18
2018-08-17T22:12:08.238Z,27.33
2018-08-17T22:14:37.028Z,26.76
2018-08-17T22:17:05.898Z,24.71
2018-08-17T22:19:39.835Z,24.25
2018-08-17T22:22:10.255Z,24.95
2018-08-17T22:24:43.923Z,24.69
2018-08-17T22:27:15.327Z,24.72
2018-08-17T22:29:45.442Z,24.82
2018-08-17T22:32:13.802Z,24.88
2018-08-17T22:34:42.206Z,24.83
2018-08-17T22:37:10.622Z,24.72
2018-08-17T22:39:39.043Z,24.75
2018-08-17T22:42:07.892Z,24.71
2018-08-17T22:44:36.310Z,25.06
2018-08-17T22:47:15.155Z,25.01
2018-08-17T22:49:43.585Z,24.73
2018-08-17T22:52:12.250Z,25.38
2018-08-17T22:54:44.891Z,24.79
2018-08-17T22:57:13.277Z,25.16
2018-08-17T22:59:41.930Z,25.13
2018-08-17T23:02:10.532Z,24.82
2018-08-17T23:04:38.875Z,24.99
2018-08-17T23:07:07.314Z,25.23
2018-08-17T23:09:35.762Z,25.08
2018-08-17T23:12:04.385Z,24.71
2018-08-17T23:14:32.849Z,25.17
2018-08-17T23:17:01.310Z,24.85
2018-08-17T23:19:29.828Z,24.57
2018-08-17T23:21:58.304Z,24.65
2018-08-17T23:24:26.924Z,24.23
2018-08-17T23:26:55.265Z,24.70
2018-08-17T23:29:23.694Z,24.68
2018-08-17T23:31:52.086Z,24.57
2018-08-17T23:34:20.616Z,25.00
2018-08-17T23:36:48.970Z,24.95
2018-08-17T23:39:17.344Z,25.31
2018-08-17T23:41:45.726Z,24.98
2018-08-17T23:44:14.247Z,24.99
2018-08-17T23:46:42.841Z,25.28
2018-08-17T23:49:11.190Z,25.36
2018-08-17T23:51:39.716Z,25.36
2018-08-17T23:54:08.088Z,25.76
2018-08-17T23:56:36.412Z,25.54
2018-08-17T23:59:05.549Z,25.52
